Time;durP1;ratioP1;P1;durP2;ratioP2;P2;SDS_P1;SDS_P2;PMS_P1;PMS_P2;Temp;Humidity;BMP_temperature;BMP_pressure;BME280_temperature;BME280_humidity;BME280_pressure;Samples;Min_cycle;Max_cycle;Signal;HPM_P1;HPM_P2
2022/06/29 00:00:15;;;;;;;;;;;11.90;99.90;;;;;;5016217;28;19921;-75
2022/06/29 00:02:46;;;;;;;;;;;12.00;99.90;;;;;;5016221;28;20258;-77
2022/06/29 00:05:13;;;;;;;;;;;12.00;99.90;;;;;;5016352;28;19913;-74
2022/06/29 00:07:41;;;;;;;;;;;12.00;99.90;;;;;;5015923;28;19910;-75
2022/06/29 00:10:09;;;;;;;;;;;12.10;99.90;;;;;;5008844;28;19914;-76
2022/06/29 00:12:36;;;;;;;;;;;12.10;99.90;;;;;;4997141;28;19913;-76
2022/06/29 00:15:03;;;;;;;;;;;12.20;99.90;;;;;;4995896;28;19910;-75
2022/06/29 00:17:31;;;;;;;;;;;12.20;99.90;;;;;;5015754;28;19996;-75
2022/06/29 00:19:58;;;;;;;;;;;12.20;99.90;;;;;;5016046;28;19921;-77
2022/06/29 00:22:25;;;;;;;;;;;12.20;99.90;;;;;;5015864;28;19939;-76
2022/06/29 00:24:52;;;;;;;;;;;12.30;99.90;;;;;;5015757;28;20275;-76
2022/06/29 00:27:19;;;;;;;;;;;12.30;99.90;;;;;;5015701;28;19916;-74
2022/06/29 00:29:46;;;;;;;;;;;12.40;99.90;;;;;;5015305;28;19953;-76
2022/06/29 00:32:13;;;;;;;;;;;12.40;99.90;;;;;;5014887;28;19913;-76
2022/06/29 00:34:40;;;;;;;;;;;12.50;99.90;;;;;;5015688;28;19936;-77
2022/06/29 00:37:07;;;;;;;;;;;12.50;99.90;;;;;;5015677;28;20414;-76
2022/06/29 00:39:34;;;;;;;;;;;12.60;99.90;;;;;;5015235;28;20009;-77
2022/06/29 00:42:01;;;;;;;;;;;12.60;99.90;;;;;;5015485;28;19909;-77
2022/06/29 00:44:28;;;;;;;;;;;12.70;99.90;;;;;;5015359;28;20004;-77
2022/06/29 00:46:58;;;;;;;;;;;12.80;99.90;;;;;;5015339;28;19972;-75
2022/06/29 00:49:26;;;;;;;;;;;12.80;99.90;;;;;;5015546;28;20311;-76
2022/06/29 00:51:58;;;;;;;;;;;12.80;99.90;;;;;;5015125;28;19910;-77
2022/06/29 00:54:25;;;;;;;;;;;12.90;99.90;;;;;;5015255;28;19913;-77
2022/06/29 00:56:52;;;;;;;;;;;12.90;99.90;;;;;;5015007;28;20008;-77
2022/06/29 00:59:20;;;;;;;;;;;13.00;99.90;;;;;;5015080;28;19929;-76
2022/06/29 01:01:47;;;;;;;;;;;13.10;99.90;;;;;;5014844;28;20001;-75
2022/06/29 01:04:13;;;;;;;;;;;13.20;99.90;;;;;;5015126;28;20000;-77
2022/06/29 01:06:40;;;;;;;;;;;13.30;99.90;;;;;;5015028;28;20038;-76
2022/06/29 01:09:07;;;;;;;;;;;13.40;99.90;;;;;;5014815;28;19917;-76
2022/06/29 01:11:34;;;;;;;;;;;13.60;99.90;;;;;;5014603;28;20276;-77
2022/06/29 01:14:01;;;;;;;;;;;13.70;99.90;;;;;;5014974;28;20395;-77
2022/06/29 01:16:28;;;;;;;;;;;13.70;99.90;;;;;;5014674;28;19916;-76
2022/06/29 01:18:55;;;;;;;;;;;13.90;99.90;;;;;;5014733;28;19925;-75
2022/06/29 01:21:22;;;;;;;;;;;14.10;99.90;;;;;;5014802;28;19917;-75
2022/06/29 01:23:49;;;;;;;;;;;14.60;99.90;;;;;;5014451;28;20394;-76
2022/06/29 01:26:16;;;;;;;;;;;14.60;99.90;;;;;;5014758;28;19941;-75
2022/06/29 01:28:46;;;;;;;;;;;14.60;99.90;;;;;;5014625;28;19917;-75
2022/06/29 01:31:14;;;;;;;;;;;14.40;99.90;;;;;;5014591;28;19909;-75
2022/06/29 01:33:40;;;;;;;;;;;14.50;99.90;;;;;;5014143;28;19916;-75
2022/06/29 01:36:07;;;;;;;;;;;14.50;99.90;;;;;;5014365;28;19909;-76
2022/06/29 01:38:35;;;;;;;;;;;14.60;99.90;;;;;;5014342;28;20312;-75
2022/06/29 01:41:04;;;;;;;;;;;14.60;99.90;;;;;;5014356;28;20328;-75
2022/06/29 01:43:31;;;;;;;;;;;14.60;99.90;;;;;;5013929;28;19909;-75
2022/06/29 01:45:58;;;;;;;;;;;14.60;99.90;;;;;;5014193;28;19914;-74
2022/06/29 01:48:25;;;;;;;;;;;14.60;99.90;;;;;;5014186;28;19909;-74
2022/06/29 01:50:51;;;;;;;;;;;14.60;99.90;;;;;;5014252;28;19909;-74
2022/06/29 01:53:18;;;;;;;;;;;14.70;99.90;;;;;;5014106;28;19909;-75
2022/06/29 01:55:45;;;;;;;;;;;14.70;99.90;;;;;;5013608;28;19921;-75
2022/06/29 01:58:12;;;;;;;;;;;14.80;99.90;;;;;;5014083;28;19965;-74
2022/06/29 02:00:39;;;;;;;;;;;14.90;99.90;;;;;;5014011;28;20368;-75
2022/06/29 02:03:06;;;;;;;;;;;15.20;99.90;;;;;;5014002;28;20253;-75
2022/06/29 02:05:33;;;;;;;;;;;15.40;99.90;;;;;;5013673;28;19909;-75
2022/06/29 02:07:59;;;;;;;;;;;15.50;99.90;;;;;;5013918;28;19916;-75
2022/06/29 02:10:26;;;;;;;;;;;15.40;99.90;;;;;;5013819;28;20357;-75
2022/06/29 02:12:53;;;;;;;;;;;15.50;99.90;;;;;;5013855;28;20372;-74
2022/06/29 02:15:20;;;;;;;;;;;15.70;99.90;;;;;;5013771;28;19917;-74
2022/06/29 02:17:46;;;;;;;;;;;15.70;99.90;;;;;;5013592;28;19913;-75
2022/06/29 02:20:13;;;;;;;;;;;15.60;99.90;;;;;;5013813;28;19953;-76
2022/06/29 02:22:40;;;;;;;;;;;15.70;99.90;;;;;;5013629;28;19963;-76
2022/06/29 02:25:07;;;;;;;;;;;15.70;99.90;;;;;;5013603;28;19909;-75
2022/06/29 02:27:34;;;;;;;;;;;15.80;99.90;;;;;;5013684;28;19932;-75
2022/06/29 02:30:01;;;;;;;;;;;15.80;99.90;;;;;;5013681;28;19909;-74
2022/06/29 02:35:12;;;;;;;;;;;15.80;99.90;;;;;;5013708;28;19916;-77
2022/06/29 02:37:38;;;;;;;;;;;15.80;99.90;;;;;;5013489;28;19940;-78
2022/06/29 02:40:05;;;;;;;;;;;15.80;99.90;;;;;;5013396;28;19917;-78
2022/06/29 02:42:32;;;;;;;;;;;15.80;99.90;;;;;;5013263;28;19910;-78
2022/06/29 02:44:59;;;;;;;;;;;15.70;99.90;;;;;;5013530;28;19963;-79
2022/06/29 02:47:27;;;;;;;;;;;15.70;99.90;;;;;;5013433;28;20000;-75
2022/06/29 02:49:54;;;;;;;;;;;15.70;99.90;;;;;;5013355;28;20008;-75
2022/06/29 02:52:21;;;;;;;;;;;15.70;99.90;;;;;;5013561;28;19932;-75
2022/06/29 02:54:47;;;;;;;;;;;15.70;99.90;;;;;;5015308;28;19913;-76
2022/06/29 02:57:14;;;;;;;;;;;15.80;99.90;;;;;;5032724;28;20056;-75
2022/06/29 02:59:41;;;;;;;;;;;15.90;99.90;;;;;;5017029;28;19918;-76
2022/06/29 03:02:08;;;;;;;;;;;15.90;99.90;;;;;;5017372;28;20015;-75
2022/06/29 03:04:34;;;;;;;;;;;15.90;99.90;;;;;;5017206;28;20024;-76
2022/06/29 03:07:01;;;;;;;;;;;15.90;99.90;;;;;;5017286;28;19910;-75
2022/06/29 03:09:28;;;;;;;;;;;15.80;99.90;;;;;;5017026;28;19917;-74
2022/06/29 03:11:55;;;;;;;;;;;15.80;99.90;;;;;;5017250;28;19910;-77
2022/06/29 03:14:21;;;;;;;;;;;15.60;99.90;;;;;;5016930;28;20349;-75
2022/06/29 03:16:48;;;;;;;;;;;15.70;99.90;;;;;;5017183;28;19916;-77
2022/06/29 03:19:15;;;;;;;;;;;15.70;99.90;;;;;;5016743;28;19979;-76
2022/06/29 03:21:41;;;;;;;;;;;15.70;99.90;;;;;;5016778;28;20387;-76
2022/06/29 03:24:08;;;;;;;;;;;15.70;99.90;;;;;;5016834;28;19949;-75
2022/06/29 03:26:35;;;;;;;;;;;15.70;99.90;;;;;;5016892;28;19949;-76
2022/06/29 03:29:01;;;;;;;;;;;15.80;99.90;;;;;;5016806;28;20415;-76
2022/06/29 03:31:28;;;;;;;;;;;15.70;99.90;;;;;;5009722;28;19921;-77
2022/06/29 03:33:55;;;;;;;;;;;15.70;99.90;;;;;;4999737;28;20009;-76
2022/06/29 03:36:21;;;;;;;;;;;15.70;99.90;;;;;;4996543;28;19909;-75
2022/06/29 03:38:48;;;;;;;;;;;15.70;99.90;;;;;;4996967;28;20293;-76
2022/06/29 03:41:15;;;;;;;;;;;15.70;99.90;;;;;;5008117;28;19917;-76
2022/06/29 03:43:41;;;;;;;;;;;15.70;99.90;;;;;;5036013;28;19916;-76
2022/06/29 03:46:08;;;;;;;;;;;15.60;99.90;;;;;;5036068;28;19916;-76
2022/06/29 03:48:35;;;;;;;;;;;15.60;99.90;;;;;;5036352;28;20400;-78
2022/06/29 03:51:02;;;;;;;;;;;15.50;99.90;;;;;;5036229;28;19909;-75
2022/06/29 03:53:28;;;;;;;;;;;15.50;99.90;;;;;;5035915;28;19915;-76
2022/06/29 03:55:56;;;;;;;;;;;15.50;99.90;;;;;;5035840;28;20264;-75
2022/06/29 03:58:23;;;;;;;;;;;15.50;99.90;;;;;;5035921;28;19917;-76
2022/06/29 04:00:49;;;;;;;;;;;15.60;99.90;;;;;;5036049;28;20370;-76
2022/06/29 04:03:16;;;;;;;;;;;15.60;99.90;;;;;;5035885;28;19913;-76
2022/06/29 04:05:43;;;;;;;;;;;15.60;99.90;;;;;;5035484;28;19916;-76
2022/06/29 04:08:10;;;;;;;;;;;15.70;99.90;;;;;;5035798;28;20008;-75
2022/06/29 04:10:37;;;;;;;;;;;15.80;99.90;;;;;;5035794;28;19916;-74
2022/06/29 04:13:04;;;;;;;;;;;15.80;99.90;;;;;;5035816;28;20015;-76
2022/06/29 04:15:31;;;;;;;;;;;15.80;99.90;;;;;;5035629;28;19909;-77
2022/06/29 04:17:57;;;;;;;;;;;15.80;99.90;;;;;;5035641;28;19915;-78
2022/06/29 04:23:09;;;;;;;;;;;15.70;99.90;;;;;;5035494;28;20014;-78
2022/06/29 04:25:35;;;;;;;;;;;15.60;99.90;;;;;;5035296;28;19999;-76
2022/06/29 04:28:02;;;;;;;;;;;15.60;99.90;;;;;;5067394;28;19909;-77
2022/06/29 04:30:29;;;;;;;;;;;15.60;99.90;;;;;;5035462;28;19963;-78
2022/06/29 04:32:55;;;;;;;;;;;15.60;99.90;;;;;;5035484;28;19913;-78
2022/06/29 04:35:22;;;;;;;;;;;15.60;99.90;;;;;;5035319;28;19913;-77
2022/06/29 04:37:49;;;;;;;;;;;15.50;99.90;;;;;;5035003;28;19913;-76
2022/06/29 04:40:16;;;;;;;;;;;15.50;99.90;;;;;;5035173;28;20004;-76
2022/06/29 04:42:42;;;;;;;;;;;15.50;99.90;;;;;;5050380;28;20390;-78
2022/06/29 04:48:00;;;;;;;;;;;15.50;99.90;;;;;;5042877;28;19909;-77
2022/06/29 04:50:27;;;;;;;;;;;15.60;99.90;;;;;;5035060;28;20018;-76
2022/06/29 04:52:54;;;;;;;;;;;15.50;99.90;;;;;;5034856;28;19909;-76
2022/06/29 04:55:23;;;;;;;;;;;15.60;99.90;;;;;;5034802;28;20320;-75
2022/06/29 04:57:50;;;;;;;;;;;15.60;99.90;;;;;;5034682;28;19913;-77
2022/06/29 05:00:17;;;;;;;;;;;15.60;99.90;;;;;;5035075;28;19917;-76
2022/06/29 05:02:44;;;;;;;;;;;15.60;99.90;;;;;;5034768;28;20376;-76
2022/06/29 05:05:11;;;;;;;;;;;15.50;99.90;;;;;;5034871;28;20031;-76
2022/06/29 05:07:37;;;;;;;;;;;15.50;99.90;;;;;;5066400;28;20248;-77
2022/06/29 05:10:04;;;;;;;;;;;15.50;99.90;;;;;;5034683;28;19916;-76
2022/06/29 05:12:31;;;;;;;;;;;15.40;99.90;;;;;;5034620;28;19909;-75
2022/06/29 05:14:58;;;;;;;;;;;15.40;99.90;;;;;;5034756;28;19909;-77
2022/06/29 05:17:25;;;;;;;;;;;15.30;99.90;;;;;;5033945;28;20011;-78
2022/06/29 05:19:52;;;;;;;;;;;15.30;99.90;;;;;;5034177;28;20296;-77
2022/06/29 05:22:19;;;;;;;;;;;15.30;99.90;;;;;;5066429;28;19948;-78
2022/06/29 05:24:46;;;;;;;;;;;15.30;99.90;;;;;;5034353;28;19958;-77
2022/06/29 05:27:12;;;;;;;;;;;15.30;99.90;;;;;;5034584;28;19913;-77
2022/06/29 05:29:39;;;;;;;;;;;15.20;99.90;;;;;;5034043;28;19925;-77
2022/06/29 05:32:06;;;;;;;;;;;15.20;99.90;;;;;;5034241;28;20345;-77
2022/06/29 05:34:33;;;;;;;;;;;15.20;99.90;;;;;;5034340;28;19949;-78
2022/06/29 05:37:00;;;;;;;;;;;15.20;99.90;;;;;;5066100;28;20007;-77
2022/06/29 05:39:30;;;;;;;;;;;15.20;99.90;;;;;;5033922;28;19921;-77
2022/06/29 05:41:56;;;;;;;;;;;15.10;99.90;;;;;;5034196;28;20043;-78
2022/06/29 05:44:23;;;;;;;;;;;15.10;99.90;;;;;;5034035;28;19916;-78
2022/06/29 05:46:50;;;;;;;;;;;15.10;99.90;;;;;;5034103;28;20411;-77
2022/06/29 05:49:17;;;;;;;;;;;15.10;99.90;;;;;;5034101;28;19916;-77
2022/06/29 05:51:43;;;;;;;;;;;15.10;99.90;;;;;;5033789;28;19910;-78
2022/06/29 05:54:10;;;;;;;;;;;15.00;99.90;;;;;;5033746;28;19913;-77
2022/06/29 05:56:37;;;;;;;;;;;15.00;99.90;;;;;;5033625;28;19931;-77
2022/06/29 05:59:03;;;;;;;;;;;15.00;99.90;;;;;;5033672;28;19971;-78
2022/06/29 06:01:30;;;;;;;;;;;15.00;99.90;;;;;;5033625;28;20004;-77
2022/06/29 06:03:57;;;;;;;;;;;15.00;99.90;;;;;;5033728;28;19915;-77
2022/06/29 06:06:23;;;;;;;;;;;15.00;99.90;;;;;;5033698;28;19945;-77
2022/06/29 06:08:50;;;;;;;;;;;14.90;99.90;;;;;;5033611;28;19909;-78
2022/06/29 06:11:17;;;;;;;;;;;14.90;99.90;;;;;;5033596;28;19909;-77
2022/06/29 06:13:43;;;;;;;;;;;14.90;99.90;;;;;;5033511;28;20000;-78
2022/06/29 06:16:10;;;;;;;;;;;14.90;99.90;;;;;;5033616;28;19916;-78
2022/06/29 06:18:37;;;;;;;;;;;14.80;99.90;;;;;;5033523;28;20380;-78
2022/06/29 06:21:04;;;;;;;;;;;14.80;99.90;;;;;;5032875;28;20036;-78
2022/06/29 06:23:30;;;;;;;;;;;14.80;99.90;;;;;;5032885;28;19910;-76
2022/06/29 06:25:57;;;;;;;;;;;14.80;99.90;;;;;;5033541;28;19909;-77
2022/06/29 06:28:24;;;;;;;;;;;14.80;99.90;;;;;;5032504;28;19909;-76
2022/06/29 06:30:50;;;;;;;;;;;14.70;99.90;;;;;;5033233;28;19932;-76
2022/06/29 06:33:17;;;;;;;;;;;14.70;99.90;;;;;;5033321;28;19913;-76
2022/06/29 06:35:44;;;;;;;;;;;14.70;99.90;;;;;;5032929;28;19915;-78
2022/06/29 06:38:10;;;;;;;;;;;14.60;99.90;;;;;;5032878;28;19917;-76
2022/06/29 06:43:22;;;;;;;;;;;14.60;99.90;;;;;;5033227;28;19935;-76
2022/06/29 06:45:48;;;;;;;;;;;14.60;99.90;;;;;;5032967;28;20004;-76
2022/06/29 06:48:15;;;;;;;;;;;14.50;99.90;;;;;;5033061;28;19952;-76
2022/06/29 06:50:42;;;;;;;;;;;14.40;99.90;;;;;;5032255;28;20356;-76
2022/06/29 06:53:09;;;;;;;;;;;14.40;99.90;;;;;;5030576;28;19919;-76
2022/06/29 06:55:36;;;;;;;;;;;14.40;99.90;;;;;;5030623;28;19979;-76
2022/06/29 06:58:03;;;;;;;;;;;14.40;99.90;;;;;;5030819;28;20738;-77
2022/06/29 07:00:30;;;;;;;;;;;14.40;99.90;;;;;;5030832;28;20382;-77
2022/06/29 07:02:56;;;;;;;;;;;14.40;99.90;;;;;;5030942;28;19937;-78
2022/06/29 07:05:25;;;;;;;;;;;14.30;99.90;;;;;;5030542;28;19960;-77
2022/06/29 07:07:52;;;;;;;;;;;14.30;99.90;;;;;;5030540;28;19913;-78
2022/06/29 07:10:18;;;;;;;;;;;14.30;99.90;;;;;;5030690;28;19913;-77
2022/06/29 07:12:45;;;;;;;;;;;14.30;99.90;;;;;;5030706;28;19921;-78
2022/06/29 07:15:12;;;;;;;;;;;14.30;99.90;;;;;;5030791;28;19936;-77
2022/06/29 07:17:38;;;;;;;;;;;14.30;99.90;;;;;;5030263;28;19913;-78
2022/06/29 07:20:06;;;;;;;;;;;14.20;99.90;;;;;;5030675;28;19921;-78
2022/06/29 07:22:33;;;;;;;;;;;14.20;99.90;;;;;;5062677;28;19921;-76
2022/06/29 07:25:00;;;;;;;;;;;14.20;99.90;;;;;;5030693;28;19984;-78
2022/06/29 07:27:26;;;;;;;;;;;14.10;99.90;;;;;;5030850;28;19909;-78
2022/06/29 07:29:53;;;;;;;;;;;14.00;99.90;;;;;;5030283;28;19909;-77
2022/06/29 07:32:20;;;;;;;;;;;14.00;99.90;;;;;;5030480;28;19991;-78
2022/06/29 07:34:47;;;;;;;;;;;14.10;99.90;;;;;;5030333;28;19956;-77
2022/06/29 07:37:14;;;;;;;;;;;14.10;99.90;;;;;;5030373;28;19909;-76
2022/06/29 07:39:41;;;;;;;;;;;14.00;99.90;;;;;;5030598;28;19925;-76
2022/06/29 07:42:07;;;;;;;;;;;14.10;99.90;;;;;;5034110;28;19909;-77
2022/06/29 07:44:34;;;;;;;;;;;14.00;99.90;;;;;;5033778;28;19913;-77
2022/06/29 07:47:01;;;;;;;;;;;14.00;99.90;;;;;;5034077;28;19913;-77
2022/06/29 07:49:28;;;;;;;;;;;14.00;99.90;;;;;;5034180;28;19917;-77
2022/06/29 07:51:54;;;;;;;;;;;14.00;99.90;;;;;;5034032;28;19913;-77
2022/06/29 07:54:22;;;;;;;;;;;14.00;99.90;;;;;;5049323;28;20004;-78
2022/06/29 07:56:48;;;;;;;;;;;14.00;99.90;;;;;;5033657;28;19974;-77
2022/06/29 07:59:16;;;;;;;;;;;13.90;99.90;;;;;;5033717;28;20003;-77
2022/06/29 08:01:44;;;;;;;;;;;13.90;99.90;;;;;;5033682;28;19917;-77
2022/06/29 08:04:11;;;;;;;;;;;13.90;99.90;;;;;;5033790;28;19909;-77
2022/06/29 08:06:38;;;;;;;;;;;13.90;99.90;;;;;;5033821;28;19913;-76
2022/06/29 08:09:05;;;;;;;;;;;13.90;99.90;;;;;;5033461;28;19919;-75
2022/06/29 08:11:32;;;;;;;;;;;13.90;99.90;;;;;;5033224;28;19909;-76
2022/06/29 08:13:59;;;;;;;;;;;13.80;99.90;;;;;;5033361;28;19948;-76
2022/06/29 08:16:26;;;;;;;;;;;13.80;99.90;;;;;;5033337;28;19917;-76
2022/06/29 08:18:52;;;;;;;;;;;13.80;99.90;;;;;;5031518;28;20289;-76
2022/06/29 08:21:19;;;;;;;;;;;13.90;99.90;;;;;;5013553;28;19914;-76
2022/06/29 08:23:47;;;;;;;;;;;13.90;99.90;;;;;;5012725;28;20016;-77
2022/06/29 08:26:14;;;;;;;;;;;13.90;99.90;;;;;;5013521;28;19913;-78
2022/06/29 08:28:40;;;;;;;;;;;13.90;99.90;;;;;;5013257;28;19913;-76
2022/06/29 08:31:07;;;;;;;;;;;13.80;99.90;;;;;;5013190;28;20339;-76
2022/06/29 08:33:34;;;;;;;;;;;13.80;99.90;;;;;;5012918;28;19972;-76
2022/06/29 08:36:00;;;;;;;;;;;13.80;99.90;;;;;;5012899;28;19910;-77
2022/06/29 08:38:27;;;;;;;;;;;13.80;99.90;;;;;;5013186;28;20292;-76
2022/06/29 08:40:55;;;;;;;;;;;13.80;99.90;;;;;;5013096;28;20336;-76
2022/06/29 08:43:22;;;;;;;;;;;13.80;99.90;;;;;;5012931;28;19955;-77
2022/06/29 08:45:50;;;;;;;;;;;13.80;99.90;;;;;;5012624;28;19920;-77
2022/06/29 08:48:17;;;;;;;;;;;13.80;99.90;;;;;;5013096;28;20074;-78
2022/06/29 08:50:48;;;;;;;;;;;13.80;99.90;;;;;;5012825;28;20026;-78
2022/06/29 08:53:15;;;;;;;;;;;13.70;99.90;;;;;;5012173;28;20149;-78
2022/06/29 08:55:49;;;;;;;;;;;13.70;99.90;;;;;;5012787;28;19921;-80
2022/06/29 08:58:20;;;;;;;;;;;13.70;99.90;;;;;;5012471;28;19999;-78
2022/06/29 09:00:49;;;;;;;;;;;13.70;99.90;;;;;;5012538;28;19913;-77
2022/06/29 09:03:18;;;;;;;;;;;13.70;99.90;;;;;;5012601;28;19913;-77
2022/06/29 09:05:54;;;;;;;;;;;13.60;99.90;;;;;;5013622;28;20277;-77
2022/06/29 09:08:21;;;;;;;;;;;13.70;99.90;;;;;;5014746;28;19967;-77
2022/06/29 09:10:49;;;;;;;;;;;13.60;99.90;;;;;;5014587;28;20372;-76
2022/06/29 09:13:22;;;;;;;;;;;13.60;99.90;;;;;;5015034;28;19913;-78
2022/06/29 09:15:59;;;;;;;;;;;13.60;99.90;;;;;;5014832;28;20395;-77
2022/06/29 09:18:25;;;;;;;;;;;13.50;99.90;;;;;;5014731;28;19921;-77
2022/06/29 09:20:56;;;;;;;;;;;13.50;99.90;;;;;;5014576;28;20317;-77
2022/06/29 09:23:23;;;;;;;;;;;13.50;99.90;;;;;;5014481;28;19956;-77
2022/06/29 09:25:50;;;;;;;;;;;13.50;99.90;;;;;;5014452;28;19937;-77
2022/06/29 09:28:21;;;;;;;;;;;13.50;99.90;;;;;;5014535;28;20335;-76
2022/06/29 09:30:48;;;;;;;;;;;13.50;99.90;;;;;;5014603;28;19914;-77
2022/06/29 09:33:15;;;;;;;;;;;13.40;99.90;;;;;;5014625;28;19916;-76
2022/06/29 09:35:42;;;;;;;;;;;13.40;99.90;;;;;;5014116;28;20054;-77
2022/06/29 09:38:25;;;;;;;;;;;13.30;99.90;;;;;;5014265;28;19913;-78
2022/06/29 09:41:01;;;;;;;;;;;13.40;99.90;;;;;;5014419;28;19920;-78
2022/06/29 09:43:29;;;;;;;;;;;13.40;99.90;;;;;;5014330;28;19998;-77
2022/06/29 09:45:56;;;;;;;;;;;13.30;99.90;;;;;;5014189;28;19936;-77
2022/06/29 09:48:23;;;;;;;;;;;13.40;99.90;;;;;;5014400;28;19972;-77
2022/06/29 09:50:52;;;;;;;;;;;13.30;99.90;;;;;;5014298;28;20280;-76
2022/06/29 09:53:19;;;;;;;;;;;13.40;99.90;;;;;;5014117;28;20364;-77
2022/06/29 09:55:48;;;;;;;;;;;13.30;99.90;;;;;;5013772;28;19926;-75
2022/06/29 09:58:18;;;;;;;;;;;13.30;99.90;;;;;;5014066;28;19913;-77
2022/06/29 10:03:32;;;;;;;;;;;13.30;99.90;;;;;;5014184;28;19937;-77
2022/06/29 10:06:05;;;;;;;;;;;13.30;99.90;;;;;;5014048;28;20375;-75
2022/06/29 10:08:35;;;;;;;;;;;13.30;99.90;;;;;;5014060;28;19910;-77
2022/06/29 10:13:58;;;;;;;;;;;13.30;99.90;;;;;;5013698;28;19917;-76
2022/06/29 10:16:48;;;;;;;;;;;13.30;99.90;;;;;;5013679;28;19913;-76
2022/06/29 10:19:27;;;;;;;;;;;13.30;99.90;;;;;;5013552;28;19975;-77
2022/06/29 10:21:55;;;;;;;;;;;13.30;99.90;;;;;;5013352;28;19932;-76
2022/06/29 10:24:22;;;;;;;;;;;13.20;99.90;;;;;;5013810;28;19910;-77
2022/06/29 10:26:50;;;;;;;;;;;13.20;99.90;;;;;;5013785;28;19913;-77
2022/06/29 10:29:17;;;;;;;;;;;13.20;99.90;;;;;;5014584;28;19932;-77
2022/06/29 10:31:53;;;;;;;;;;;13.20;99.90;;;;;;5013431;28;20008;-76
2022/06/29 10:34:38;;;;;;;;;;;13.20;99.90;;;;;;5013637;28;19909;-76
2022/06/29 10:37:09;;;;;;;;;;;13.20;99.90;;;;;;5013365;28;20004;-77
2022/06/29 10:39:35;;;;;;;;;;;13.20;99.90;;;;;;5013369;28;19928;-77
2022/06/29 10:45:07;;;;;;;;;;;13.30;99.90;;;;;;5013496;28;19968;-75
2022/06/29 10:47:35;;;;;;;;;;;13.30;99.90;;;;;;5013370;28;19910;-77
2022/06/29 10:52:46;;;;;;;;;;;13.30;99.90;;;;;;5013215;28;19909;-76
2022/06/29 10:55:14;;;;;;;;;;;13.30;99.90;;;;;;5012858;28;20000;-77
2022/06/29 10:57:44;;;;;;;;;;;13.30;99.90;;;;;;5013202;28;19996;-77
2022/06/29 11:00:24;;;;;;;;;;;13.30;99.90;;;;;;5013507;28;20280;-77
2022/06/29 11:02:51;;;;;;;;;;;13.30;99.90;;;;;;5013609;28;20412;-77
2022/06/29 11:05:18;;;;;;;;;;;13.30;99.90;;;;;;5013353;28;19914;-76
2022/06/29 11:13:25;;;;;;;;;;;13.40;99.90;;;;;;5013622;28;19963;-77
2022/06/29 11:15:56;;;;;;;;;;;13.30;99.90;;;;;;5015778;28;19921;-77
2022/06/29 11:18:29;;;;;;;;;;;13.30;99.90;;;;;;5017439;28;20361;-78
2022/06/29 11:21:05;;;;;;;;;;;13.40;99.90;;;;;;5017167;28;20077;-76
2022/06/29 11:23:35;;;;;;;;;;;13.40;99.90;;;;;;5016905;28;19909;-76
2022/06/29 11:26:03;;;;;;;;;;;13.30;99.90;;;;;;5016300;28;20004;-75
2022/06/29 11:28:49;;;;;;;;;;;13.30;99.90;;;;;;5017124;28;19910;-76
2022/06/29 11:31:18;;;;;;;;;;;13.30;99.90;;;;;;5016829;28;19917;-76
2022/06/29 11:33:49;;;;;;;;;;;13.20;99.90;;;;;;5016794;28;19910;-75
2022/06/29 11:36:20;;;;;;;;;;;13.20;99.90;;;;;;5016879;28;19921;-76
2022/06/29 11:38:48;;;;;;;;;;;13.10;99.90;;;;;;5018400;28;20366;-75
2022/06/29 11:41:16;;;;;;;;;;;13.10;99.90;;;;;;5019537;28;20045;-75
2022/06/29 11:43:43;;;;;;;;;;;13.10;99.90;;;;;;5016254;28;20414;-76
2022/06/29 11:46:21;;;;;;;;;;;13.20;99.90;;;;;;5016779;28;19909;-76
2022/06/29 11:51:37;;;;;;;;;;;13.20;99.90;;;;;;5016666;28;19920;-74
2022/06/29 11:54:07;;;;;;;;;;;13.30;99.90;;;;;;5017031;28;20372;-77
2022/06/29 11:56:34;;;;;;;;;;;13.30;99.90;;;;;;5016173;28;19976;-74
2022/06/29 11:59:05;;;;;;;;;;;13.30;99.90;;;;;;5016509;28;19924;-75
2022/06/29 12:01:32;;;;;;;;;;;13.30;99.90;;;;;;5016407;28;19910;-75
2022/06/29 12:04:01;;;;;;;;;;;13.30;99.90;;;;;;5016449;28;19917;-76
2022/06/29 12:06:28;;;;;;;;;;;13.30;99.90;;;;;;5016253;28;19956;-74
2022/06/29 12:08:56;;;;;;;;;;;13.30;99.90;;;;;;5016372;28;20269;-74
2022/06/29 12:11:23;;;;;;;;;;;13.30;99.90;;;;;;5015291;28;19943;-74
2022/06/29 12:13:50;;;;;;;;;;;13.30;99.90;;;;;;5015987;28;19949;-74
2022/06/29 12:16:17;;;;;;;;;;;13.20;99.90;;;;;;5016002;28;19910;-74
2022/06/29 12:18:44;;;;;;;;;;;13.20;99.90;;;;;;5015902;28;19914;-74
2022/06/29 12:21:10;;;;;;;;;;;13.30;99.90;;;;;;5015804;28;19997;-75
2022/06/29 12:23:37;;;;;;;;;;;13.20;99.90;;;;;;5015576;28;19913;-75
2022/06/29 12:26:04;;;;;;;;;;;13.20;99.90;;;;;;5015235;28;20273;-74
2022/06/29 12:28:31;;;;;;;;;;;13.20;99.90;;;;;;5015723;28;19909;-74
2022/06/29 12:30:57;;;;;;;;;;;13.20;99.90;;;;;;5015737;28;20284;-74
2022/06/29 12:33:24;;;;;;;;;;;13.20;99.90;;;;;;5015709;28;19909;-74
2022/06/29 12:35:52;;;;;;;;;;;13.20;99.90;;;;;;5015278;28;19996;-75
2022/06/29 12:38:19;;;;;;;;;;;13.30;99.90;;;;;;5015492;28;19925;-74
2022/06/29 12:40:45;;;;;;;;;;;13.20;99.90;;;;;;5015043;28;19910;-74
2022/06/29 12:43:12;;;;;;;;;;;13.20;99.90;;;;;;5015391;28;19916;-74
2022/06/29 12:45:39;;;;;;;;;;;13.20;99.90;;;;;;5015283;28;20008;-74
2022/06/29 12:48:05;;;;;;;;;;;13.20;99.90;;;;;;5015603;28;20051;-75
2022/06/29 12:50:32;;;;;;;;;;;13.20;99.90;;;;;;5015252;28;19909;-74
2022/06/29 12:52:59;;;;;;;;;;;13.10;99.90;;;;;;5015398;28;19963;-74
2022/06/29 12:55:26;;;;;;;;;;;13.10;99.90;;;;;;5014602;28;19929;-75
2022/06/29 12:57:52;;;;;;;;;;;13.10;99.90;;;;;;5014912;28;19910;-74
2022/06/29 13:00:19;;;;;;;;;;;13.10;99.90;;;;;;5015023;28;19918;-74
2022/06/29 13:02:46;;;;;;;;;;;13.00;99.90;;;;;;5015247;28;19913;-75
2022/06/29 13:05:13;;;;;;;;;;;13.10;99.90;;;;;;5014963;28;19916;-75
2022/06/29 13:07:40;;;;;;;;;;;13.10;99.90;;;;;;5014853;28;20027;-75
2022/06/29 13:10:07;;;;;;;;;;;13.10;99.90;;;;;;5014480;28;19936;-74
2022/06/29 13:12:34;;;;;;;;;;;13.00;99.90;;;;;;5015196;28;19913;-75
2022/06/29 13:15:01;;;;;;;;;;;13.00;99.90;;;;;;5014912;28;19925;-75
2022/06/29 13:17:28;;;;;;;;;;;13.00;99.90;;;;;;5014914;28;19996;-75
2022/06/29 13:19:55;;;;;;;;;;;13.00;99.90;;;;;;5014607;28;19917;-74
2022/06/29 13:22:23;;;;;;;;;;;13.10;99.90;;;;;;5014682;28;19910;-75
2022/06/29 13:24:50;;;;;;;;;;;13.00;99.90;;;;;;5014233;28;19909;-74
2022/06/29 13:27:17;;;;;;;;;;;13.00;99.90;;;;;;5014726;28;19952;-74
2022/06/29 13:29:43;;;;;;;;;;;13.00;99.90;;;;;;5014358;28;20323;-75
2022/06/29 13:32:10;;;;;;;;;;;13.00;99.90;;;;;;5014593;28;19910;-75
2022/06/29 13:34:37;;;;;;;;;;;13.10;99.90;;;;;;5014504;28;19909;-74
2022/06/29 13:37:04;;;;;;;;;;;13.00;99.90;;;;;;5014191;28;19910;-75
2022/06/29 13:39:30;;;;;;;;;;;13.00;99.90;;;;;;5024058;28;19924;-75
2022/06/29 13:41:59;;;;;;;;;;;13.00;99.90;;;;;;5034303;28;20333;-76
2022/06/29 13:44:27;;;;;;;;;;;13.00;99.90;;;;;;5034336;28;20000;-75
2022/06/29 13:46:54;;;;;;;;;;;13.00;99.90;;;;;;5034268;28;19921;-76
2022/06/29 13:49:21;;;;;;;;;;;13.10;99.90;;;;;;5034216;28;19909;-76
2022/06/29 13:51:47;;;;;;;;;;;13.10;99.90;;;;;;5033776;28;20368;-76
2022/06/29 13:54:14;;;;;;;;;;;13.10;99.90;;;;;;5034035;28;19909;-75
2022/06/29 13:56:41;;;;;;;;;;;13.10;99.90;;;;;;5033887;28;20002;-75
2022/06/29 13:59:08;;;;;;;;;;;13.10;99.90;;;;;;5033897;28;19917;-76
2022/06/29 14:01:34;;;;;;;;;;;13.10;99.90;;;;;;5033758;28;19997;-75
2022/06/29 14:04:01;;;;;;;;;;;13.10;99.90;;;;;;5033866;28;19941;-76
2022/06/29 14:06:28;;;;;;;;;;;13.10;99.90;;;;;;5033581;28;19916;-76
2022/06/29 14:08:54;;;;;;;;;;;13.10;99.90;;;;;;5033779;28;19991;-76
2022/06/29 14:11:22;;;;;;;;;;;13.00;99.90;;;;;;5033741;28;19909;-75
2022/06/29 14:13:49;;;;;;;;;;;13.10;99.90;;;;;;5033584;28;19909;-77
2022/06/29 14:16:16;;;;;;;;;;;13.10;99.90;;;;;;5033657;28;19948;-76
2022/06/29 14:18:43;;;;;;;;;;;13.10;99.90;;;;;;5033582;28;20055;-76
2022/06/29 14:21:10;;;;;;;;;;;13.10;99.90;;;;;;5033378;28;19909;-76
2022/06/29 14:23:37;;;;;;;;;;;13.10;99.90;;;;;;5033383;28;20426;-76
2022/06/29 14:26:04;;;;;;;;;;;13.20;99.90;;;;;;5033580;28;19909;-75
2022/06/29 14:28:31;;;;;;;;;;;13.20;99.90;;;;;;5033530;28;19949;-74
2022/06/29 14:30:57;;;;;;;;;;;13.20;99.90;;;;;;5033484;28;19975;-75
2022/06/29 14:33:24;;;;;;;;;;;13.20;99.90;;;;;;5033515;28;20391;-75
2022/06/29 14:35:51;;;;;;;;;;;13.10;99.90;;;;;;5033066;28;19996;-75
2022/06/29 14:38:17;;;;;;;;;;;13.20;99.90;;;;;;5033312;28;19909;-77
2022/06/29 14:40:44;;;;;;;;;;;13.20;99.90;;;;;;5048680;28;20368;-77
2022/06/29 14:43:12;;;;;;;;;;;13.10;99.90;;;;;;5033378;28;19909;-77
2022/06/29 14:45:40;;;;;;;;;;;13.10;99.90;;;;;;5033192;28;19947;-77
2022/06/29 14:48:07;;;;;;;;;;;13.10;99.90;;;;;;5033204;28;20283;-75